Time;durP1;ratioP1;P1;durP2;ratioP2;P2;SDS_P1;SDS_P2;PMS_P1;PMS_P2;Temp;Humidity;BMP_temperature;BMP_pressure;BME280_temperature;BME280_humidity;BME280_pressure;Samples;Min_cycle;Max_cycle;Signal;HPM_P1;HPM_P2
2022/07/13 00:00:11;;;;;;;28.13;17.88;;;;;;;20.26;86.94;102121.09;4969028;28;20055;-80
2022/07/13 00:02:36;;;;;;;28.20;18.17;;;;;;;20.25;87.68;102127.28;4986595;28;20042;-80
2022/07/13 00:05:01;;;;;;;27.30;17.77;;;;;;;20.26;87.39;102122.88;4972246;28;20038;-80
2022/07/13 00:07:26;;;;;;;29.25;18.92;;;;;;;20.24;87.07;102117.66;4983268;28;20824;-80
2022/07/13 00:09:52;;;;;;;27.25;18.73;;;;;;;20.24;86.58;102116.81;4984288;28;20066;-80
2022/07/13 00:12:17;;;;;;;27.93;18.40;;;;;;;20.22;86.54;102118.66;4969669;28;20038;-80
2022/07/13 00:14:42;;;;;;;29.80;19.92;;;;;;;20.18;86.57;102110.03;4971209;28;20351;-80
2022/07/13 00:17:08;;;;;;;28.90;19.02;;;;;;;20.17;87.41;102104.84;4991584;28;20030;-80
2022/07/13 00:19:33;;;;;;;31.50;19.38;;;;;;;20.13;85.26;102083.03;4971997;28;20031;-86
2022/07/13 00:21:59;;;;;;;29.00;19.08;;;;;;;20.13;85.88;102086.53;4993216;28;20101;-86
2022/07/13 00:24:24;;;;;;;28.80;19.30;;;;;;;20.13;86.54;102078.63;4993485;28;20057;-86
2022/07/13 00:26:50;;;;;;;31.38;19.83;;;;;;;20.08;86.67;102070.09;4974346;28;20019;-87
2022/07/13 00:29:15;;;;;;;33.53;20.13;;;;;;;20.07;86.20;102071.00;4970442;28;20030;-87
2022/07/13 00:31:42;;;;;;;28.88;19.00;;;;;;;20.07;87.04;102071.00;4972624;28;20101;-87
2022/07/13 00:34:07;;;;;;;30.90;18.63;;;;;;;20.03;86.66;102071.22;4972046;28;20113;-86
2022/07/13 00:36:32;;;;;;;30.13;19.43;;;;;;;19.99;86.57;102065.22;4981767;28;20030;-87
2022/07/13 00:38:58;;;;;;;32.37;19.60;;;;;;;19.96;85.92;102059.25;4967215;28;20321;-85
2022/07/13 00:41:23;;;;;;;31.98;19.58;;;;;;;19.91;85.88;102056.81;4980337;28;20785;-87
2022/07/13 00:43:48;;;;;;;29.50;19.13;;;;;;;19.86;86.61;102042.13;4988079;28;20489;-86
2022/07/13 00:46:14;;;;;;;30.60;18.85;;;;;;;19.85;86.41;102049.19;4985406;28;20297;-87
2022/07/13 00:48:41;;;;;;;30.38;18.85;;;;;;;19.83;85.89;102045.75;4970673;28;20082;-81
2022/07/13 00:51:06;;;;;;;30.63;18.83;;;;;;;19.83;86.98;102043.13;4977342;28;20029;-81
2022/07/13 00:53:37;;;;;;;27.65;17.95;;;;;;;19.80;87.14;102048.50;4992892;28;20120;-80
2022/07/13 00:56:03;;;;;;;29.88;18.73;;;;;;;19.76;87.21;102040.81;4978522;28;20131;-80
2022/07/13 00:58:29;;;;;;;29.10;18.98;;;;;;;19.78;86.63;102042.47;4975195;28;20038;-80
2022/07/13 01:00:55;;;;;;;31.02;18.65;;;;;;;19.75;87.34;102042.59;4961923;28;20044;-81
2022/07/13 01:03:21;;;;;;;29.98;18.85;;;;;;;19.76;87.86;102030.28;4956267;28;20485;-80
2022/07/13 01:05:47;;;;;;;29.10;18.85;;;;;;;19.70;88.21;102027.00;4971965;28;20082;-80
2022/07/13 01:08:12;;;;;;;30.05;19.15;;;;;;;19.66;87.13;102020.16;4968540;28;20227;-80
2022/07/13 01:10:39;;;;;;;28.90;18.17;;;;;;;19.66;86.71;102014.03;4952745;28;20522;-80
2022/07/13 01:13:08;;;;;;;28.60;18.55;;;;;;;19.63;87.06;102022.94;4970652;28;20019;-80
2022/07/13 01:15:34;;;;;;;29.58;18.60;;;;;;;19.67;87.89;102024.50;4975254;28;20414;-80
2022/07/13 01:18:01;;;;;;;30.48;18.00;;;;;;;19.67;87.02;102026.28;4968896;28;20582;-80
2022/07/13 01:20:26;;;;;;;29.45;18.98;;;;;;;19.65;86.91;102021.06;4970494;28;20027;-81
2022/07/13 01:22:53;;;;;;;31.08;18.85;;;;;;;19.64;87.18;102023.78;4977187;28;20450;-81
2022/07/13 01:25:19;;;;;;;29.83;18.98;;;;;;;19.65;87.90;102023.69;4991582;28;20572;-80
2022/07/13 01:27:46;;;;;;;29.15;18.85;;;;;;;19.64;87.84;102026.41;4988921;28;20141;-80
2022/07/13 01:30:12;;;;;;;31.33;17.90;;;;;;;19.64;87.68;102027.28;4971106;28;20463;-80
2022/07/13 01:32:50;;;;;;;28.25;18.70;;;;;;;19.65;86.84;102025.50;4970247;28;20589;-80
2022/07/13 01:35:16;;;;;;;28.52;18.45;;;;;;;19.64;87.71;102022.00;4965904;28;20046;-81
2022/07/13 01:37:43;;;;;;;29.23;18.65;;;;;;;19.62;86.80;102018.59;4980160;28;20097;-81
2022/07/13 01:40:09;;;;;;;32.30;19.38;;;;;;;19.62;86.78;102021.22;4971923;28;20038;-81
2022/07/13 01:42:40;;;;;;;31.60;19.08;;;;;;;19.60;86.72;102020.41;4991955;28;20026;-81
2022/07/13 01:45:08;;;;;;;29.35;18.45;;;;;;;19.60;88.09;102017.78;4982997;28;20026;-81
2022/07/13 01:47:39;;;;;;;29.80;19.25;;;;;;;19.58;87.35;102016.16;4985407;28;20414;-80
2022/07/13 01:50:06;;;;;;;30.58;18.70;;;;;;;19.59;87.17;102010.81;4973379;28;20109;-87
2022/07/13 01:52:33;;;;;;;31.58;19.13;;;;;;;19.54;87.08;102002.28;4985709;28;20046;-87
2022/07/13 01:54:58;;;;;;;29.52;18.42;;;;;;;19.57;87.67;102001.28;4988474;28;20418;-87
2022/07/13 01:57:23;;;;;;;33.47;19.17;;;;;;;19.61;87.17;102005.50;4987927;28;20568;-86
2022/07/13 01:59:49;;;;;;;32.10;19.13;;;;;;;19.61;87.80;102011.63;4983148;28;20037;-87
2022/07/13 02:02:14;;;;;;;29.05;18.92;;;;;;;19.60;87.22;102012.53;4972389;28;20041;-86
2022/07/13 02:04:40;;;;;;;29.73;19.07;;;;;;;19.62;87.47;102007.22;4987665;28;20057;-87
2022/07/13 02:07:06;;;;;;;31.20;19.55;;;;;;;19.57;86.54;102002.16;4987901;28;20293;-87
2022/07/13 02:09:32;;;;;;;29.55;19.40;;;;;;;19.58;86.83;101998.56;4989771;28;20543;-87
2022/07/13 02:11:57;;;;;;;30.42;19.25;;;;;;;19.55;85.90;102003.97;4970666;28;20061;-86
2022/07/13 02:14:22;;;;;;;30.17;18.43;;;;;;;19.53;87.01;102003.19;4989205;28;20031;-87
2022/07/13 02:16:48;;;;;;;32.00;18.48;;;;;;;19.50;87.50;101990.19;4986070;28;20732;-86
2022/07/13 02:19:13;;;;;;;27.40;17.95;;;;;;;19.53;87.29;101997.06;4985170;28;20030;-87
2022/07/13 02:21:38;;;;;;;30.08;18.98;;;;;;;19.52;86.61;101990.94;4987812;28;20401;-86
2022/07/13 02:24:04;;;;;;;29.88;18.67;;;;;;;19.56;88.02;101984.66;4989655;28;20145;-86
2022/07/13 02:26:29;;;;;;;29.35;17.88;;;;;;;19.53;88.44;101984.78;4970269;28;20070;-87
2022/07/13 02:28:55;;;;;;;30.30;18.38;;;;;;;19.52;87.99;101985.69;4953766;28;20486;-87
2022/07/13 02:31:20;;;;;;;30.20;18.47;;;;;;;19.50;87.51;101987.56;4979177;28;20486;-87
2022/07/13 02:33:46;;;;;;;33.42;19.38;;;;;;;19.47;87.42;101981.53;4948394;28;20353;-87
2022/07/13 02:36:11;;;;;;;33.10;18.63;;;;;;;19.46;87.55;101980.69;4954994;28;20122;-87
2022/07/13 02:38:36;;;;;;;31.73;18.58;;;;;;;19.48;87.84;101983.25;4969560;28;20514;-87
2022/07/13 02:41:02;;;;;;;32.80;18.00;;;;;;;19.48;88.54;101972.75;4969174;28;20363;-87
2022/07/13 02:43:27;;;;;;;32.95;18.60;;;;;;;19.49;88.52;101963.94;4952826;28;20361;-87
2022/07/13 02:45:53;;;;;;;31.88;18.40;;;;;;;19.50;88.43;101963.03;4971234;28;20027;-87
2022/07/13 02:48:18;;;;;;;31.73;17.73;;;;;;;19.50;87.91;101961.25;4970212;28;20513;-81
2022/07/13 02:50:44;;;;;;;32.15;18.45;;;;;;;19.51;87.83;101965.59;4970835;28;20375;-81
2022/07/13 02:53:10;;;;;;;33.15;18.45;;;;;;;19.50;87.64;101948.09;4973591;28;20109;-81
2022/07/13 02:55:35;;;;;;;30.90;17.70;;;;;;;19.51;86.71;101946.31;4975627;28;20054;-81
2022/07/13 02:58:01;;;;;;;28.63;17.08;;;;;;;19.48;87.04;101942.03;4970564;28;20070;-81
2022/07/13 03:00:26;;;;;;;29.80;17.73;;;;;;;19.49;87.42;101956.06;4968571;28;20031;-81
2022/07/13 03:02:51;;;;;;;27.17;16.90;;;;;;;19.50;87.67;101955.13;4967997;28;20018;-81
2022/07/13 03:05:17;;;;;;;26.02;17.65;;;;;;;19.50;87.43;101957.75;4971733;28;20041;-81
2022/07/13 03:07:42;;;;;;;26.88;16.58;;;;;;;19.48;87.68;101954.34;4973724;28;20062;-81
2022/07/13 03:10:08;;;;;;;28.50;17.75;;;;;;;19.48;87.46;101956.97;4979711;28;20421;-81
2022/07/13 03:12:34;;;;;;;26.63;16.75;;;;;;;19.48;87.67;101963.09;4958968;28;20053;-81
2022/07/13 03:14:59;;;;;;;27.67;15.93;;;;;;;19.48;87.80;101959.59;4970874;28;20027;-81
2022/07/13 03:17:24;;;;;;;27.98;18.08;;;;;;;19.48;88.20;101968.34;4975336;28;20464;-81
2022/07/13 03:19:50;;;;;;;26.93;16.97;;;;;;;19.46;87.51;101951.75;4970798;28;20027;-81
2022/07/13 03:22:15;;;;;;;26.15;16.90;;;;;;;19.43;87.47;101946.63;4968088;28;20298;-81
2022/07/13 03:24:40;;;;;;;25.70;16.48;;;;;;;19.43;87.64;101951.88;4967360;28;20078;-81
2022/07/13 03:27:06;;;;;;;25.20;16.35;;;;;;;19.45;88.10;101946.56;4988027;28;20031;-80
2022/07/13 03:29:31;;;;;;;22.95;15.23;;;;;;;19.45;88.04;101951.81;4988913;28;20033;-81
2022/07/13 03:31:57;;;;;;;23.10;14.60;;;;;;;19.41;88.22;101943.19;4976701;28;20030;-81
2022/07/13 03:34:22;;;;;;;21.35;14.05;;;;;;;19.46;89.02;101946.50;4988606;28;20040;-81
2022/07/13 03:36:48;;;;;;;25.08;14.80;;;;;;;19.45;87.83;101938.66;4989242;28;20060;-81
2022/07/13 03:39:13;;;;;;;22.45;14.18;;;;;;;19.45;88.63;101942.13;4968623;28;20051;-81
2022/07/13 03:41:39;;;;;;;22.25;13.63;;;;;;;19.45;88.41;101936.03;4976630;28;20085;-81
2022/07/13 03:44:05;;;;;;;22.63;13.85;;;;;;;19.43;87.98;101940.50;4971009;28;20109;-81
2022/07/13 03:46:30;;;;;;;23.70;13.98;;;;;;;19.43;87.79;101933.47;4988202;28;20065;-81
2022/07/13 03:48:55;;;;;;;25.38;13.40;;;;;;;19.45;88.34;101936.03;4987099;28;21232;-81
2022/07/13 03:51:20;;;;;;;19.38;12.70;;;;;;;19.46;88.23;101935.97;4990111;28;20030;-81
2022/07/13 03:53:46;;;;;;;17.27;11.53;;;;;;;19.46;88.16;101933.34;4970100;28;20042;-81
2022/07/13 03:56:11;;;;;;;18.63;12.50;;;;;;;19.49;88.62;101927.13;4985056;28;20791;-81
2022/07/13 03:58:36;;;;;;;18.58;12.00;;;;;;;19.50;88.10;101931.47;4962430;28;20058;-81
2022/07/13 04:01:02;;;;;;;18.65;11.40;;;;;;;19.47;88.86;101926.31;4994718;28;20571;-81
2022/07/13 04:03:27;;;;;;;16.95;10.80;;;;;;;19.49;88.42;101933.22;4990965;28;20038;-80
2022/07/13 04:05:53;;;;;;;17.98;11.02;;;;;;;19.49;87.91;101937.63;4992049;28;20058;-81
2022/07/13 04:08:18;;;;;;;15.07;10.15;;;;;;;19.50;87.13;101936.72;4992658;28;20089;-81
2022/07/13 04:10:44;;;;;;;13.85;9.45;;;;;;;19.53;88.32;101940.06;4991120;28;20133;-81
2022/07/13 04:13:09;;;;;;;14.68;9.93;;;;;;;19.52;86.75;101926.97;4990624;28;20102;-81
2022/07/13 04:15:35;;;;;;;13.93;9.30;;;;;;;19.54;87.67;101936.50;4993052;28;20113;-81
2022/07/13 04:18:00;;;;;;;15.48;9.40;;;;;;;19.52;87.17;101935.72;4992301;28;20022;-81
2022/07/13 04:20:26;;;;;;;15.07;8.88;;;;;;;19.51;87.00;101923.50;4991823;28;20027;-87
2022/07/13 04:22:51;;;;;;;13.73;8.60;;;;;;;19.53;87.01;101920.78;4992923;28;20493;-87
2022/07/13 04:25:16;;;;;;;17.83;8.80;;;;;;;19.53;87.19;101919.00;4971119;28;20114;-87
2022/07/13 04:27:41;;;;;;;16.42;8.20;;;;;;;19.51;87.03;101920.88;4988368;28;20301;-87
2022/07/13 04:30:07;;;;;;;13.10;7.77;;;;;;;19.54;80.60;101919.88;4976457;28;20053;-87
2022/07/13 04:32:33;;;;;;;16.02;7.90;;;;;;;19.55;83.17;101911.91;4993812;28;20270;-88
2022/07/13 04:34:58;;;;;;;13.67;7.90;;;;;;;19.59;82.70;101908.22;4987323;28;20034;-87
2022/07/13 04:37:23;;;;;;;14.15;7.60;;;;;;;19.64;84.06;101910.66;4990715;28;20660;-87
2022/07/13 04:39:49;;;;;;;13.57;7.22;;;;;;;19.67;84.09;101898.22;4972175;28;20035;-87
2022/07/13 04:42:14;;;;;;;11.23;7.30;;;;;;;19.75;83.33;101911.03;4977748;28;20034;-88
2022/07/13 04:44:39;;;;;;;13.03;7.10;;;;;;;19.76;82.90;101902.22;4974461;28;20682;-88
2022/07/13 04:47:04;;;;;;;11.50;6.80;;;;;;;19.86;76.40;101913.16;4987410;28;20858;-87
2022/07/13 04:49:30;;;;;;;10.53;6.33;;;;;;;19.92;75.36;101910.28;4992825;28;20281;-81
2022/07/13 04:51:55;;;;;;;12.13;6.65;;;;;;;20.00;78.45;101909.00;4983447;28;20290;-81
2022/07/13 04:54:21;;;;;;;11.40;6.82;;;;;;;20.09;77.31;101908.56;4983357;28;20026;-81
2022/07/13 04:56:47;;;;;;;10.80;6.28;;;;;;;20.17;77.47;101913.50;4988607;28;20041;-81
2022/07/13 04:59:13;;;;;;;10.18;6.15;;;;;;;20.23;74.45;101914.97;4974891;28;20037;-81
2022/07/13 05:01:39;;;;;;;8.85;5.70;;;;;;;20.31;73.29;101902.31;4990834;28;20030;-81
2022/07/13 05:04:04;;;;;;;9.60;6.05;;;;;;;20.38;77.01;101904.63;4992214;28;20067;-81
2022/07/13 05:06:30;;;;;;;9.82;6.10;;;;;;;20.44;72.32;101904.31;4992296;28;20548;-81
2022/07/13 05:08:56;;;;;;;8.88;5.53;;;;;;;20.50;71.09;101909.28;4981523;28;20031;-81
2022/07/13 05:11:21;;;;;;;10.27;5.80;;;;;;;20.58;70.37;101900.16;4976594;28;20049;-81
2022/07/13 05:13:47;;;;;;;10.67;5.83;;;;;;;20.66;70.96;101909.41;4990837;28;20404;-81
2022/07/13 05:16:12;;;;;;;9.50;5.13;;;;;;;20.72;70.06;101900.34;4981898;28;20827;-81
2022/07/13 05:18:37;;;;;;;8.43;5.03;;;;;;;20.78;70.14;101903.53;4986881;28;20490;-81
2022/07/13 05:21:03;;;;;;;10.82;5.47;;;;;;;20.84;69.66;101900.59;4977603;28;20039;-81
2022/07/13 05:23:28;;;;;;;9.10;5.50;;;;;;;20.92;72.02;101899.34;4976934;28;20114;-81
2022/07/13 05:25:54;;;;;;;11.55;5.40;;;;;;;20.98;69.21;101897.25;4974104;28;20023;-82
2022/07/13 05:28:19;;;;;;;8.23;5.40;;;;;;;21.03;70.02;101902.28;4972854;28;20037;-81
2022/07/13 05:30:44;;;;;;;10.73;5.60;;;;;;;21.08;67.38;101892.41;4958316;28;20054;-81
2022/07/13 05:33:10;;;;;;;9.20;5.60;;;;;;;21.12;69.17;101897.44;4971202;28;20034;-81
2022/07/13 05:35:36;;;;;;;10.68;5.72;;;;;;;21.19;68.74;101898.00;4977929;28;20716;-81
2022/07/13 05:38:01;;;;;;;11.18;5.65;;;;;;;21.23;71.84;101904.81;4973313;28;20079;-81
2022/07/13 05:40:26;;;;;;;11.15;5.60;;;;;;;21.25;68.24;101902.94;4976706;28;20502;-82
2022/07/13 05:42:52;;;;;;;9.52;5.07;;;;;;;21.28;69.66;101918.63;4979049;28;20034;-82
2022/07/13 05:45:18;;;;;;;9.23;5.10;;;;;;;21.31;67.78;101912.34;4973271;28;20030;-81
2022/07/13 05:47:45;;;;;;;9.15;5.10;;;;;;;21.36;69.20;101923.53;4981929;28;20030;-81
2022/07/13 05:50:13;;;;;;;13.60;5.32;;;;;;;21.40;67.53;101923.28;4974919;28;20022;-81
2022/07/13 05:52:39;;;;;;;10.15;5.22;;;;;;;21.42;66.50;101917.94;4968498;28;20183;-82
2022/07/13 05:55:04;;;;;;;11.98;4.90;;;;;;;21.39;64.68;101918.94;4969135;28;20208;-82
2022/07/13 05:57:30;;;;;;;8.63;5.18;;;;;;;21.44;64.01;101926.59;4968461;28;20045;-81
2022/07/13 05:59:55;;;;;;;10.30;5.20;;;;;;;21.47;64.17;101924.66;4970153;28;20419;-83
2022/07/13 06:02:20;;;;;;;11.30;6.00;;;;;;;21.58;62.12;101932.00;4969221;28;20289;-82
2022/07/13 06:04:46;;;;;;;9.27;5.60;;;;;;;21.71;63.59;101934.84;4966506;28;20034;-82
2022/07/13 06:07:12;;;;;;;9.85;5.93;;;;;;;21.81;62.11;101938.72;4971828;28;20297;-82
2022/07/13 06:09:37;;;;;;;7.93;4.95;;;;;;;21.93;63.80;101924.88;4962189;28;20027;-82
2022/07/13 06:12:02;;;;;;;8.93;5.90;;;;;;;22.06;64.16;101926.78;4963875;28;20086;-82
2022/07/13 06:14:28;;;;;;;14.10;5.95;;;;;;;22.18;61.94;101924.41;4966179;28;20716;-81
2022/07/13 06:16:53;;;;;;;12.17;5.93;;;;;;;22.26;61.67;101914.28;4967134;28;20754;-82
2022/07/13 06:19:18;;;;;;;8.80;5.53;;;;;;;22.35;61.28;101925.19;4959491;28;20282;-81
2022/07/13 06:21:44;;;;;;;11.30;6.00;;;;;;;22.43;62.61;101922.13;4972407;28;20034;-82
2022/07/13 06:24:09;;;;;;;11.13;5.60;;;;;;;22.52;60.95;101918.13;4982387;28;20309;-81
2022/07/13 06:26:34;;;;;;;7.75;5.10;;;;;;;22.65;60.62;101920.00;4987361;28;20477;-82
2022/07/13 06:28:59;;;;;;;12.70;5.40;;;;;;;22.78;63.20;101923.66;4986390;28;20121;-81
2022/07/13 06:31:25;;;;;;;10.60;5.67;;;;;;;22.96;60.52;101926.16;4984793;28;20286;-82
2022/07/13 06:33:52;;;;;;;8.93;5.60;;;;;;;23.15;60.32;101929.44;4983222;28;20312;-82
2022/07/13 06:36:18;;;;;;;12.38;6.20;;;;;;;23.31;58.84;101922.31;4981435;28;20509;-82
2022/07/13 06:38:43;;;;;;;11.45;5.70;;;;;;;23.44;59.11;101927.72;4975632;28;20599;-82
2022/07/13 06:41:09;;;;;;;10.35;5.75;;;;;;;23.52;58.53;101920.19;4981342;28;20046;-82
2022/07/13 06:43:34;;;;;;;9.73;5.53;;;;;;;23.56;59.65;101911.97;4988599;28;20481;-81
2022/07/13 06:46:00;;;;;;;8.80;6.23;;;;;;;23.62;56.59;101908.94;4984788;28;20293;-82
2022/07/13 06:48:25;;;;;;;8.43;5.60;;;;;;;23.69;58.98;101900.63;4971589;28;20293;-83
2022/07/13 06:50:51;;;;;;;10.77;5.97;;;;;;;23.77;57.39;101903.63;4986825;28;20038;-83
2022/07/13 06:53:16;;;;;;;15.47;6.70;;;;;;;23.85;56.48;101904.03;4990702;28;20274;-83
2022/07/13 06:55:42;;;;;;;12.88;6.03;;;;;;;24.00;57.32;101911.88;4987136;28;20297;-82
2022/07/13 06:58:07;;;;;;;10.18;6.40;;;;;;;24.07;55.90;101912.34;4990800;28;20018;-89
2022/07/13 07:00:32;;;;;;;12.55;6.13;;;;;;;24.05;56.68;101906.28;4988996;28;20045;-88
2022/07/13 07:02:58;;;;;;;12.40;6.50;;;;;;;24.06;55.99;101909.78;4990341;28;20109;-89
2022/07/13 07:05:23;;;;;;;10.93;6.07;;;;;;;24.06;58.45;101910.63;4991608;28;20270;-88
2022/07/13 07:07:49;;;;;;;11.05;6.32;;;;;;;24.10;57.51;101917.41;4989323;28;20397;-88
2022/07/13 07:10:14;;;;;;;19.98;6.70;;;;;;;24.13;58.91;101919.88;4990343;28;20061;-88
2022/07/13 07:12:40;;;;;;;11.07;6.25;;;;;;;24.35;57.44;101916.75;4984537;28;20117;-88
2022/07/13 07:15:06;;;;;;;12.27;6.97;;;;;;;24.58;56.49;101924.06;4989517;28;20050;-89
2022/07/13 07:17:31;;;;;;;13.40;6.82;;;;;;;24.71;55.64;101922.28;4988915;28;20022;-89
2022/07/13 07:20:04;;;;;;;14.40;6.00;;;;;;;24.80;56.84;101924.34;4985448;28;20026;-88
2022/07/13 07:22:29;;;;;;;13.27;7.15;;;;;;;24.84;55.08;101916.22;4981601;28;20089;-88
2022/07/13 07:24:56;;;;;;;13.57;6.75;;;;;;;24.83;56.10;101914.50;4977014;28;20055;-88
2022/07/13 07:27:22;;;;;;;12.57;7.05;;;;;;;24.80;54.77;101913.75;4961105;28;20030;-89
2022/07/13 07:29:47;;;;;;;14.20;7.18;;;;;;;24.70;55.20;101917.94;4971118;28;20141;-82
2022/07/13 07:32:12;;;;;;;12.20;6.60;;;;;;;24.71;57.79;101913.50;4973918;28;20037;-83
2022/07/13 07:34:38;;;;;;;12.35;6.95;;;;;;;24.83;56.24;101902.09;4966991;28;20030;-83
2022/07/13 07:37:03;;;;;;;13.23;7.30;;;;;;;24.97;55.46;101904.72;4979161;28;20034;-83
2022/07/13 07:39:29;;;;;;;11.35;6.53;;;;;;;25.03;55.08;101911.41;4984185;28;20502;-83
2022/07/13 07:41:55;;;;;;;12.35;7.38;;;;;;;25.03;55.04;101908.75;4969834;28;20027;-83
2022/07/13 07:44:20;;;;;;;14.60;6.82;;;;;;;25.11;55.83;101909.91;4970925;28;20423;-83
2022/07/13 07:46:47;;;;;;;10.88;6.20;;;;;;;25.15;57.08;101900.81;4970233;28;20489;-83
2022/07/13 07:49:12;;;;;;;12.27;6.82;;;;;;;25.32;56.44;101906.75;4970930;28;20023;-83
2022/07/13 07:51:37;;;;;;;13.70;7.55;;;;;;;25.54;54.64;101904.31;4952549;28;20029;-83
2022/07/13 07:54:03;;;;;;;14.80;7.43;;;;;;;25.71;54.19;101889.91;4970462;28;20452;-83
2022/07/13 07:56:28;;;;;;;12.53;7.07;;;;;;;25.81;54.28;101904.22;4989092;28;20575;-83
2022/07/13 07:58:53;;;;;;;10.77;7.38;;;;;;;25.87;53.42;101904.63;4990576;28;20345;-85
2022/07/13 08:01:19;;;;;;;12.17;7.30;;;;;;;25.86;53.93;101910.06;4972485;28;20030;-84
2022/07/13 08:03:45;;;;;;;13.80;7.50;;;;;;;25.87;54.00;101901.97;4972191;28;20297;-83
2022/07/13 08:06:11;;;;;;;15.68;7.78;;;;;;;25.95;54.28;101907.59;4970595;28;20038;-83
2022/07/13 08:08:37;;;;;;;10.23;6.55;;;;;;;26.03;55.47;101907.03;4969272;28;20023;-83
2022/07/13 08:11:03;;;;;;;14.85;6.43;;;;;;;26.33;56.20;101904.03;4970314;28;20042;-83
2022/07/13 08:13:30;;;;;;;10.27;6.18;;;;;;;26.57;55.30;101910.19;4969137;28;20037;-84
2022/07/13 08:15:55;;;;;;;14.07;7.07;;;;;;;26.90;56.03;101906.00;4953172;28;20022;-83
2022/07/13 08:18:20;;;;;;;11.82;7.15;;;;;;;26.88;53.23;101900.78;4970437;28;20113;-83
2022/07/13 08:20:46;;;;;;;10.60;6.97;;;;;;;26.74;53.82;101912.47;4970705;28;20474;-83
2022/07/13 08:25:55;;;;;;;11.55;7.35;;;;;;;26.53;55.36;101906.06;4990065;28;20157;-83
2022/07/13 08:28:20;;;;;;;11.00;6.95;;;;;;;26.41;55.55;101906.94;4989718;28;20319;-87
2022/07/13 08:30:45;;;;;;;10.35;7.35;;;;;;;26.42;55.66;101906.00;5003150;28;20397;-89
2022/07/13 08:33:11;;;;;;;10.05;6.63;;;;;;;26.65;55.75;101910.47;4980647;28;20351;-90
2022/07/13 08:38:35;;;;;;;9.98;6.82;;;;;;;27.22;54.91;101914.22;4978738;28;20041;-89
2022/07/13 08:41:02;;;;;;;10.98;7.15;;;;;;;27.33;53.77;101906.25;4975877;28;20021;-89
2022/07/13 08:43:27;;;;;;;14.80;7.50;;;;;;;27.31;51.85;101918.81;4991527;28;20030;-90
2022/07/13 08:45:53;;;;;;;12.18;7.30;;;;;;;27.21;51.72;101915.19;4975912;28;20026;-89
2022/07/13 08:48:25;;;;;;;11.40;6.30;;;;;;;27.05;53.14;101913.69;4993188;28;20449;-88
2022/07/13 08:50:52;;;;;;;10.40;7.50;;;;;;;26.96;51.23;101913.50;4993489;28;20066;-89
2022/07/13 08:53:17;;;;;;;10.48;6.53;;;;;;;26.86;52.63;101909.81;4991852;28;20030;-90
2022/07/13 08:55:43;;;;;;;10.38;6.68;;;;;;;26.78;51.93;101926.38;4975997;28;20085;-89
2022/07/13 08:58:10;;;;;;;8.50;6.05;;;;;;;26.64;52.22;101931.84;4975644;28;20125;-90
2022/07/13 09:00:35;;;;;;;9.95;6.30;;;;;;;26.57;51.10;101926.16;4993653;28;20041;-91
2022/07/13 09:03:01;;;;;;;11.77;6.07;;;;;;;26.52;52.21;101917.66;4974661;28;20030;-89
2022/07/13 09:05:27;;;;;;;10.13;6.20;;;;;;;26.52;51.66;101920.31;4993199;28;20058;-90
2022/07/13 09:08:04;;;;;;;9.88;6.30;;;;;;;26.62;52.30;101920.47;4993105;28;20313;-89
2022/07/13 09:10:30;;;;;;;9.85;5.50;;;;;;;26.70;51.66;101912.78;4993142;28;20026;-89
2022/07/13 09:12:55;;;;;;;8.32;5.57;;;;;;;26.96;53.82;101926.81;4992477;28;20117;-89
2022/07/13 09:15:20;;;;;;;11.25;6.22;;;;;;;27.21;50.97;101931.16;4993185;28;20092;-88
2022/07/13 09:17:47;;;;;;;9.00;5.70;;;;;;;27.54;51.83;101927.72;4993294;28;20484;-89
2022/07/13 09:20:12;;;;;;;9.15;5.68;;;;;;;27.69;50.27;101937.19;4993092;28;20022;-89
2022/07/13 09:22:51;;;;;;;7.30;5.83;;;;;;;27.87;53.01;101938.41;4974549;28;20049;-88
2022/07/13 09:25:27;;;;;;;7.57;5.47;;;;;;;27.89;52.03;101929.31;4990723;28;20053;-89
2022/07/13 09:27:53;;;;;;;8.98;5.72;;;;;;;27.95;50.80;101924.47;4965495;28;20031;-90
2022/07/13 09:30:26;;;;;;;9.93;5.80;;;;;;;28.08;51.08;101928.69;4993533;28;20022;-89
2022/07/13 09:32:57;;;;;;;10.10;6.20;;;;;;;28.16;49.08;101933.44;4992142;28;20411;-89
2022/07/13 09:35:47;;;;;;;10.20;6.15;;;;;;;28.24;50.31;101929.19;4992153;28;20081;-90
2022/07/13 09:38:38;;;;;;;9.32;5.78;;;;;;;28.32;50.50;101949.06;4992936;28;20023;-89
2022/07/13 09:41:24;;;;;;;9.98;6.45;;;;;;;28.29;49.34;101942.16;4975324;28;20088;-91
2022/07/13 09:46:37;;;;;;;10.07;6.18;;;;;;;28.19;49.92;101941.19;4992696;28;20044;-89
2022/07/13 09:49:02;;;;;;;9.93;6.22;;;;;;;28.13;48.21;101939.84;4973058;28;20113;-89
2022/07/13 09:51:27;;;;;;;11.77;6.28;;;;;;;28.03;48.27;101943.38;4992666;28;20390;-89
2022/07/13 09:53:59;;;;;;;10.80;5.73;;;;;;;27.93;48.10;101956.56;4972769;28;20026;-88
2022/07/13 09:56:26;;;;;;;9.38;6.10;;;;;;;27.77;47.43;101954.25;4967691;28;20273;-89
2022/07/13 09:58:53;;;;;;;8.70;5.68;;;;;;;27.61;47.99;101956.44;5005803;28;20022;-89
2022/07/13 10:01:19;;;;;;;11.32;5.40;;;;;;;27.45;47.28;101956.72;4991232;28;20034;-90
2022/07/13 10:03:45;;;;;;;11.00;5.88;;;;;;;27.25;47.95;101951.25;4993930;28;20073;-89
2022/07/13 10:06:12;;;;;;;11.00;5.10;;;;;;;27.25;48.26;101952.09;4992497;28;20030;-90
2022/07/13 10:08:39;;;;;;;8.23;5.13;;;;;;;27.28;48.80;101948.34;4974451;28;20026;-90
2022/07/13 10:11:04;;;;;;;9.02;5.15;;;;;;;27.56;47.04;101941.78;4987594;28;20078;-92
2022/07/13 10:13:30;;;;;;;8.05;4.93;;;;;;;27.94;47.52;101934.28;4975774;28;20034;-91
2022/07/13 10:15:55;;;;;;;7.10;5.13;;;;;;;28.30;47.56;101938.53;4992633;28;20030;-90
2022/07/13 10:18:24;;;;;;;8.43;5.63;;;;;;;28.44;45.65;101953.41;4974490;28;20077;-89
2022/07/13 10:20:57;;;;;;;12.32;5.35;;;;;;;28.59;45.08;101955.66;4991333;28;20299;-89
2022/07/13 10:23:36;;;;;;;10.95;5.60;;;;;;;28.80;46.61;101947.72;4991538;28;20030;-91
2022/07/13 10:26:02;;;;;;;9.32;4.97;;;;;;;29.03;46.27;101949.34;4992119;28;20037;-90
2022/07/13 10:28:27;;;;;;;8.55;4.82;;;;;;;29.19;44.73;101945.38;4991520;28;20030;-90
2022/07/13 10:30:53;;;;;;;9.15;4.70;;;;;;;29.21;42.74;101944.25;4973414;28;20057;-89
2022/07/13 10:33:26;;;;;;;8.30;5.10;;;;;;;29.06;45.67;101946.41;4990688;28;20036;-90
2022/07/13 10:35:54;;;;;;;9.00;5.57;;;;;;;28.89;45.00;101946.97;4974515;28;20034;-89
2022/07/13 10:38:27;;;;;;;7.75;5.07;;;;;;;28.76;44.62;101953.44;4991478;28;20022;-91
2022/07/13 10:41:21;;;;;;;7.35;4.97;;;;;;;28.83;46.01;101959.97;4990612;28;20026;-90
2022/07/13 10:44:02;;;;;;;8.88;5.40;;;;;;;29.11;44.86;101959.38;4991702;28;20030;-88
2022/07/13 10:46:48;;;;;;;7.93;5.32;;;;;;;29.58;44.86;101950.00;4991461;28;20041;-91
2022/07/13 10:49:35;;;;;;;8.73;4.70;;;;;;;29.61;44.48;101964.94;4973734;28;20053;-90
2022/07/13 10:52:26;;;;;;;8.73;4.60;;;;;;;29.69;45.36;101959.75;4988971;28;20022;-91
2022/07/13 10:55:03;;;;;;;6.15;4.45;;;;;;;29.65;43.86;101958.34;4987200;28;20081;-92
2022/07/13 10:57:33;;;;;;;8.73;4.50;;;;;;;29.40;41.37;101960.47;4983835;28;20109;-90
2022/07/13 11:00:16;;;;;;;7.45;4.75;;;;;;;29.15;42.85;101959.94;4991301;28;20238;-83
2022/07/13 11:02:48;;;;;;;8.50;4.07;;;;;;;29.19;44.18;101961.41;4976921;28;20499;-81
2022/07/13 11:05:17;;;;;;;8.57;4.45;;;;;;;29.10;41.09;101955.00;4983758;28;20026;-81
2022/07/13 11:07:44;;;;;;;5.80;4.20;;;;;;;29.39;43.99;101961.44;4985388;28;20030;-80
2022/07/13 11:10:22;;;;;;;9.38;4.72;;;;;;;29.74;42.72;101966.41;4991286;28;20022;-82
2022/07/13 11:13:02;;;;;;;9.82;4.22;;;;;;;30.12;42.32;101962.22;4990178;28;20499;-81
2022/07/13 11:15:50;;;;;;;9.85;4.70;;;;;;;30.17;41.80;101963.50;4991302;28;20037;-81
2022/07/13 11:18:21;;;;;;;6.32;4.50;;;;;;;30.06;40.50;101966.28;4990819;28;20110;-81
2022/07/13 11:21:14;;;;;;;7.97;4.40;;;;;;;30.13;40.73;101971.94;4990067;28;20516;-81
2022/07/13 11:26:53;;;;;;;6.38;3.85;;;;;;;30.07;39.62;101973.34;4990155;28;20118;-81